Time;durP1;ratioP1;P1;durP2;ratioP2;P2;SDS_P1;SDS_P2;PMS_P1;PMS_P2;Temp;Humidity;BMP_temperature;BMP_pressure;BME280_temperature;BME280_humidity;BME280_pressure;Samples;Min_cycle;Max_cycle;Signal;HPM_P1;HPM_P2
2023/08/15 00:00:02;;;;;;;3.37;2.47;;;22.00;99.90;;;;;;5117370;28;20427;-88
2023/08/15 00:02:28;;;;;;;3.03;2.73;;;22.00;99.90;;;;;;5116930;28;20474;-88
2023/08/15 00:04:56;;;;;;;3.00;2.70;;;22.00;99.90;;;;;;5116650;28;20486;-88
2023/08/15 00:07:24;;;;;;;2.57;2.37;;;22.00;99.90;;;;;;5117054;28;20888;-88
2023/08/15 00:09:51;;;;;;;4.50;3.20;;;22.00;99.90;;;;;;5116978;28;20441;-88
2023/08/15 00:12:17;;;;;;;2.70;2.50;;;22.10;99.90;;;;;;5116598;28;20449;-88
2023/08/15 00:14:44;;;;;;;3.27;2.60;;;22.10;99.90;;;;;;5116879;28;20454;-88
2023/08/15 00:17:11;;;;;;;3.07;2.80;;;22.10;99.90;;;;;;5116934;28;20442;-87
2023/08/15 00:19:38;;;;;;;2.37;2.23;;;22.10;99.90;;;;;;5116902;28;20442;-88
2023/08/15 00:22:05;;;;;;;5.37;2.87;;;22.10;99.90;;;;;;5116773;28;20438;-88
2023/08/15 00:24:33;;;;;;;4.20;2.70;;;22.10;99.90;;;;;;5116474;28;20462;-88
2023/08/15 00:27:00;;;;;;;4.57;3.13;;;22.10;99.90;;;;;;5116373;28;20205;-88
2023/08/15 00:29:27;;;;;;;2.50;2.30;;;22.10;99.90;;;;;;5116817;28;20434;-88
2023/08/15 00:31:53;;;;;;;3.13;2.87;;;22.10;99.90;;;;;;5116575;28;20445;-88
2023/08/15 00:34:20;;;;;;;2.73;2.50;;;22.10;99.90;;;;;;5116552;28;20822;-88
2023/08/15 00:36:47;;;;;;;2.73;2.37;;;22.10;99.90;;;;;;5116596;28;20443;-88
2023/08/15 00:39:13;;;;;;;2.40;2.30;;;22.10;99.90;;;;;;5115145;28;20412;-87
2023/08/15 00:41:41;;;;;;;2.53;2.33;;;22.00;99.90;;;;;;5116529;28;20446;-88
2023/08/15 00:44:08;;;;;;;2.93;2.37;;;22.00;99.90;;;;;;5116391;28;20468;-88
2023/08/15 00:46:35;;;;;;;2.87;2.30;;;22.10;99.90;;;;;;5116321;27;20482;-88
2023/08/15 00:49:02;;;;;;;3.50;2.20;;;22.00;99.90;;;;;;5116278;28;20446;-88
2023/08/15 00:51:29;;;;;;;4.67;2.70;;;22.00;99.90;;;;;;5115859;28;20445;-88
2023/08/15 00:53:56;;;;;;;2.90;2.70;;;22.00;99.90;;;;;;5116160;28;20512;-88
2023/08/15 00:56:23;;;;;;;1.77;1.63;;;21.90;99.90;;;;;;5116113;28;20442;-88
2023/08/15 00:58:51;;;;;;;4.50;2.83;;;21.90;99.90;;;;;;5116156;28;20438;-88
2023/08/15 01:01:21;;;;;;;2.60;2.40;;;21.90;99.90;;;;;;5115709;28;20443;-88
2023/08/15 01:03:49;;;;;;;2.87;2.47;;;21.90;99.90;;;;;;5115776;28;20481;-88
2023/08/15 01:06:16;;;;;;;3.70;2.20;;;21.80;99.90;;;;;;5115699;28;20490;-87
2023/08/15 01:08:43;;;;;;;4.10;3.10;;;21.70;99.90;;;;;;5115925;28;20790;-88
2023/08/15 01:11:10;;;;;;;2.80;2.30;;;21.70;99.90;;;;;;5115830;28;20434;-88
2023/08/15 01:13:42;;;;;;;6.90;2.70;;;21.70;99.90;;;;;;5115754;28;20443;-88
2023/08/15 01:16:22;;;;;;;4.27;3.10;;;21.60;99.90;;;;;;5115363;28;20454;-88
2023/08/15 01:18:54;;;;;;;3.03;2.73;;;21.60;99.90;;;;;;5116486;28;20423;-88
2023/08/15 01:21:29;;;;;;;3.20;2.90;;;21.60;99.90;;;;;;5115749;28;20493;-87
2023/08/15 01:23:57;;;;;;;4.30;2.37;;;21.60;99.90;;;;;;5115705;28;20438;-88
2023/08/15 01:26:23;;;;;;;4.90;3.17;;;21.60;99.90;;;;;;5115533;28;20561;-88
2023/08/15 01:28:50;;;;;;;3.37;3.07;;;21.50;99.90;;;;;;5115177;27;20447;-88
2023/08/15 01:31:24;;;;;;;2.67;2.47;;;21.50;99.90;;;;;;5115424;28;20442;-88
2023/08/15 01:34:00;;;;;;;3.00;2.80;;;21.40;99.90;;;;;;5115347;28;20423;-88
2023/08/15 01:36:39;;;;;;;3.40;3.10;;;21.50;99.90;;;;;;5115085;28;20421;-88
2023/08/15 01:39:08;;;;;;;2.73;2.53;;;21.50;99.90;;;;;;5115001;28;20910;-87
2023/08/15 01:41:38;;;;;;;3.80;3.40;;;21.40;99.90;;;;;;5115269;28;20435;-88
2023/08/15 01:44:07;;;;;;;2.77;2.57;;;21.50;99.90;;;;;;5115392;28;20442;-88
2023/08/15 01:46:34;;;;;;;4.00;3.00;;;21.40;99.90;;;;;;5115154;28;20854;-88
2023/08/15 01:49:00;;;;;;;2.60;2.40;;;21.40;99.90;;;;;;5114804;28;20431;-86
2023/08/15 01:51:27;;;;;;;3.60;3.30;;;21.40;99.90;;;;;;5114672;28;20450;-86
2023/08/15 01:53:54;;;;;;;3.33;2.80;;;21.40;99.90;;;;;;5114946;28;20817;-86
2023/08/15 01:56:22;;;;;;;7.03;3.60;;;21.40;99.90;;;;;;5114680;28;20443;-86
2023/08/15 01:58:49;;;;;;;3.87;2.93;;;21.40;99.90;;;;;;5114944;28;20451;-86
2023/08/15 02:01:16;;;;;;;3.67;3.00;;;21.40;99.90;;;;;;5114592;28;20446;-86
2023/08/15 02:03:42;;;;;;;3.93;3.27;;;21.40;99.90;;;;;;5114663;28;20474;-86
2023/08/15 02:06:09;;;;;;;6.00;3.20;;;21.40;99.90;;;;;;5114629;28;20857;-87
2023/08/15 02:08:36;;;;;;;3.40;3.10;;;21.40;99.90;;;;;;5114788;28;20807;-86
2023/08/15 02:11:03;;;;;;;4.13;3.00;;;21.40;99.90;;;;;;5114719;28;20439;-87
2023/08/15 02:13:33;;;;;;;2.97;2.77;;;21.40;99.90;;;;;;5114607;28;20928;-85
2023/08/15 02:16:00;;;;;;;4.20;3.33;;;21.40;99.90;;;;;;5114719;28;20499;-86
2023/08/15 02:18:27;;;;;;;3.80;3.37;;;21.40;99.90;;;;;;5114555;28;20442;-86
2023/08/15 02:20:54;;;;;;;3.03;2.83;;;21.40;99.90;;;;;;5114639;28;20472;-87
2023/08/15 02:23:21;;;;;;;2.90;2.70;;;21.40;99.90;;;;;;5114790;28;20442;-86
2023/08/15 02:25:47;;;;;;;3.10;2.53;;;21.40;99.90;;;;;;5114226;28;20488;-86
2023/08/15 02:28:14;;;;;;;3.97;3.20;;;21.40;99.90;;;;;;5114569;28;20442;-87
2023/08/15 02:30:42;;;;;;;5.10;3.10;;;21.40;99.90;;;;;;5114456;28;20443;-86
2023/08/15 02:33:09;;;;;;;3.30;3.10;;;21.40;99.90;;;;;;5114217;28;20445;-89
2023/08/15 02:35:40;;;;;;;3.23;2.93;;;21.40;99.90;;;;;;5114315;28;20461;-86
2023/08/15 02:38:06;;;;;;;6.17;3.10;;;21.40;99.90;;;;;;5114314;28;20450;-86
2023/08/15 02:40:33;;;;;;;3.50;3.20;;;21.30;99.90;;;;;;5114406;28;20449;-87
2023/08/15 02:43:00;;;;;;;3.50;2.77;;;21.30;99.90;;;;;;5114330;28;20435;-89
2023/08/15 02:45:27;;;;;;;3.33;3.13;;;21.30;99.90;;;;;;5113886;28;20470;-86
2023/08/15 02:47:55;;;;;;;2.70;2.43;;;21.30;99.90;;;;;;5114384;28;20445;-87
2023/08/15 02:50:21;;;;;;;4.37;3.30;;;21.30;99.90;;;;;;5114338;28;20442;-86
2023/08/15 02:52:48;;;;;;;2.93;2.73;;;21.30;99.90;;;;;;5114416;28;20446;-86
2023/08/15 02:55:15;;;;;;;2.80;2.57;;;21.30;99.90;;;;;;5114285;28;20469;-86
2023/08/15 02:57:42;;;;;;;3.47;3.00;;;21.20;99.90;;;;;;5114252;28;20448;-86
2023/08/15 03:00:10;;;;;;;3.83;3.13;;;21.30;99.90;;;;;;5114334;28;20443;-87
2023/08/15 03:02:37;;;;;;;4.97;3.37;;;21.20;99.90;;;;;;5115249;28;20565;-86
2023/08/15 03:05:06;;;;;;;3.73;3.27;;;21.20;99.90;;;;;;5118195;28;20469;-87
2023/08/15 03:07:32;;;;;;;6.00;3.83;;;21.20;99.90;;;;;;5118242;28;20446;-86
2023/08/15 03:09:59;;;;;;;6.67;4.30;;;21.20;99.90;;;;;;5118210;28;20438;-86
2023/08/15 03:12:26;;;;;;;4.17;2.83;;;21.30;99.90;;;;;;5117879;28;20454;-86
2023/08/15 03:14:52;;;;;;;3.37;3.07;;;21.30;99.90;;;;;;5118080;28;20454;-86
2023/08/15 03:17:21;;;;;;;4.43;3.00;;;21.30;99.90;;;;;;5118390;28;20431;-86
2023/08/15 03:19:48;;;;;;;4.27;2.70;;;21.30;99.90;;;;;;5118179;28;20499;-87
2023/08/15 03:22:16;;;;;;;4.00;3.60;;;21.30;99.90;;;;;;5118511;28;20529;-86
2023/08/15 03:24:43;;;;;;;6.73;3.50;;;21.20;99.90;;;;;;5118146;28;20983;-89
2023/08/15 03:27:10;;;;;;;4.17;3.00;;;21.20;99.90;;;;;;5117799;28;20497;-86
2023/08/15 03:29:36;;;;;;;4.50;2.53;;;21.20;99.90;;;;;;5117896;28;20447;-87
2023/08/15 03:32:03;;;;;;;2.80;2.60;;;21.20;99.90;;;;;;5117702;28;20434;-87
2023/08/15 03:34:30;;;;;;;3.87;3.57;;;21.10;99.90;;;;;;5117826;28;20458;-87
2023/08/15 03:36:57;;;;;;;3.50;3.20;;;21.10;99.90;;;;;;5117632;28;20442;-86
2023/08/15 03:39:27;;;;;;;5.70;3.57;;;21.00;99.90;;;;;;5117923;28;20446;-86
2023/08/15 03:41:54;;;;;;;3.23;2.60;;;21.00;99.90;;;;;;5118141;27;20795;-85
2023/08/15 03:44:20;;;;;;;4.00;3.57;;;21.00;99.90;;;;;;5117651;28;20458;-86
2023/08/15 03:46:47;;;;;;;3.80;2.80;;;20.90;99.90;;;;;;5117405;28;20478;-87
2023/08/15 03:49:14;;;;;;;4.70;3.07;;;20.90;99.90;;;;;;5117642;28;20443;-87
2023/08/15 03:51:41;;;;;;;5.30;4.10;;;20.90;99.90;;;;;;5117201;27;20543;-86
2023/08/15 03:54:08;;;;;;;6.40;3.60;;;20.90;99.90;;;;;;5117204;28;20470;-87
2023/08/15 03:56:36;;;;;;;3.73;3.43;;;20.90;99.90;;;;;;5117796;28;20994;-87
2023/08/15 03:59:03;;;;;;;5.50;3.40;;;20.90;99.90;;;;;;5117360;28;20474;-86
2023/08/15 04:01:29;;;;;;;4.03;2.93;;;20.90;99.90;;;;;;5118801;28;20453;-86
2023/08/15 04:03:56;;;;;;;3.93;3.53;;;20.90;99.90;;;;;;5118493;28;20531;-86
2023/08/15 04:06:23;;;;;;;3.23;3.03;;;20.80;99.90;;;;;;5118695;28;20478;-86
2023/08/15 04:08:50;;;;;;;8.57;3.40;;;20.80;99.90;;;;;;5119148;28;20801;-86
2023/08/15 04:11:17;;;;;;;6.47;3.50;;;20.90;99.90;;;;;;5118459;28;20453;-86
2023/08/15 04:13:45;;;;;;;4.87;3.10;;;20.90;99.90;;;;;;5119158;28;20449;-85
2023/08/15 04:16:11;;;;;;;4.20;3.33;;;20.80;99.90;;;;;;5118576;27;20816;-86
2023/08/15 04:18:38;;;;;;;3.00;2.80;;;20.80;99.90;;;;;;5118148;28;20803;-86
2023/08/15 04:21:05;;;;;;;3.83;3.40;;;20.90;99.90;;;;;;5117374;28;20442;-87
2023/08/15 04:23:32;;;;;;;6.03;3.17;;;20.80;99.90;;;;;;5117079;28;20435;-87
2023/08/15 04:25:58;;;;;;;5.70;3.37;;;20.80;99.90;;;;;;5116739;28;20482;-87
2023/08/15 04:28:25;;;;;;;6.03;3.70;;;20.90;99.90;;;;;;5116687;27;20446;-87
2023/08/15 04:30:53;;;;;;;3.60;3.30;;;20.90;99.90;;;;;;5117112;27;20446;-86
2023/08/15 04:33:20;;;;;;;4.57;3.37;;;20.80;99.90;;;;;;5116787;28;20443;-87
2023/08/15 04:35:47;;;;;;;6.47;4.37;;;20.90;99.90;;;;;;5116281;28;20478;-87
2023/08/15 04:38:14;;;;;;;5.37;3.37;;;20.90;99.90;;;;;;5116696;28;20438;-86
2023/08/15 04:40:43;;;;;;;3.23;2.83;;;20.90;99.90;;;;;;5116572;28;20456;-87
2023/08/15 04:43:10;;;;;;;5.90;4.00;;;20.90;99.90;;;;;;5116567;28;21029;-86
2023/08/15 04:45:40;;;;;;;3.40;3.10;;;20.90;99.90;;;;;;5116084;28;20982;-86
2023/08/15 04:48:10;;;;;;;5.00;3.23;;;21.00;99.90;;;;;;5116350;28;20415;-86
2023/08/15 04:50:37;;;;;;;3.50;3.20;;;21.00;99.90;;;;;;5116336;27;20540;-86
2023/08/15 04:53:04;;;;;;;7.90;3.70;;;21.00;99.90;;;;;;5116341;28;20446;-86
2023/08/15 04:55:31;;;;;;;5.30;3.43;;;21.00;99.90;;;;;;5116121;28;20478;-87
2023/08/15 04:57:57;;;;;;;5.70;4.10;;;21.10;99.90;;;;;;5116222;28;20441;-87
2023/08/15 05:00:24;;;;;;;5.77;3.97;;;21.10;99.90;;;;;;5115854;28;20438;-87
2023/08/15 05:02:51;;;;;;;4.00;3.60;;;21.10;99.90;;;;;;5115941;28;20470;-87
2023/08/15 05:05:19;;;;;;;5.13;3.27;;;21.20;99.90;;;;;;5116008;28;20462;-87
2023/08/15 05:07:46;;;;;;;4.27;3.60;;;21.20;99.90;;;;;;5115571;28;20574;-87
2023/08/15 05:10:13;;;;;;;4.20;3.80;;;21.40;99.90;;;;;;5116021;28;20442;-86
2023/08/15 05:12:39;;;;;;;3.50;3.27;;;21.40;99.90;;;;;;5115816;28;20457;-87
2023/08/15 05:15:09;;;;;;;6.97;4.20;;;21.40;99.90;;;;;;5115905;28;20462;-87
2023/08/15 05:17:35;;;;;;;3.63;3.30;;;21.50;99.90;;;;;;5115545;28;20543;-86
2023/08/15 05:20:03;;;;;;;4.00;3.60;;;21.50;99.90;;;;;;5115437;28;20445;-87
2023/08/15 05:22:31;;;;;;;5.33;3.83;;;21.50;99.90;;;;;;5115729;28;20481;-87
2023/08/15 05:24:58;;;;;;;4.73;3.77;;;21.50;99.90;;;;;;5115265;28;20871;-87
2023/08/15 05:27:25;;;;;;;5.37;3.20;;;21.60;99.90;;;;;;5115201;28;20470;-87
2023/08/15 05:29:52;;;;;;;7.33;3.70;;;21.60;99.90;;;;;;5115634;28;20431;-86
2023/08/15 05:32:18;;;;;;;5.63;4.17;;;21.60;99.90;;;;;;5115291;27;20818;-87
2023/08/15 05:34:45;;;;;;;3.33;3.03;;;21.60;99.90;;;;;;5115370;28;20967;-87
2023/08/15 05:37:12;;;;;;;4.40;3.87;;;21.70;99.90;;;;;;5115020;28;20931;-87
2023/08/15 05:39:40;;;;;;;5.97;4.60;;;21.60;99.90;;;;;;5114964;28;20445;-87
2023/08/15 05:42:07;;;;;;;4.13;3.80;;;21.70;99.90;;;;;;5115289;28;20822;-86
2023/08/15 05:44:34;;;;;;;5.13;3.93;;;21.60;99.90;;;;;;5115220;28;20916;-87
2023/08/15 05:47:00;;;;;;;3.27;3.07;;;21.50;99.90;;;;;;5115116;28;20489;-87
2023/08/15 05:49:27;;;;;;;3.97;3.30;;;21.50;99.90;;;;;;5115189;28;20442;-86
2023/08/15 05:51:54;;;;;;;6.17;3.60;;;21.50;99.90;;;;;;5115109;27;20943;-86
2023/08/15 05:54:21;;;;;;;3.97;3.47;;;21.40;99.90;;;;;;5115014;27;20463;-87
2023/08/15 05:56:49;;;;;;;7.13;3.60;;;21.30;99.90;;;;;;5114675;28;20950;-86
2023/08/15 05:59:16;;;;;;;4.77;3.40;;;21.30;99.90;;;;;;5115137;28;20442;-87
2023/08/15 06:01:42;;;;;;;4.47;3.50;;;21.30;99.90;;;;;;5114599;28;20453;-87
2023/08/15 06:04:09;;;;;;;5.80;3.57;;;21.40;99.90;;;;;;5114227;28;20474;-87
2023/08/15 06:06:36;;;;;;;6.73;4.10;;;21.40;99.90;;;;;;5114866;28;20481;-87
2023/08/15 06:09:03;;;;;;;5.87;4.00;;;21.40;99.90;;;;;;5114745;28;20434;-87
2023/08/15 06:11:30;;;;;;;5.90;4.30;;;21.50;99.90;;;;;;5114550;28;20894;-87
2023/08/15 06:13:58;;;;;;;3.73;3.43;;;21.60;99.90;;;;;;5114842;28;20435;-86
2023/08/15 06:16:25;;;;;;;4.73;3.83;;;21.70;99.90;;;;;;5114852;28;20439;-87
2023/08/15 06:18:51;;;;;;;5.50;4.30;;;21.70;99.90;;;;;;5114848;28;20434;-86
2023/08/15 06:21:18;;;;;;;3.20;2.90;;;21.80;99.90;;;;;;5114967;28;20961;-86
2023/08/15 06:23:45;;;;;;;3.90;3.60;;;21.80;99.90;;;;;;5114632;28;20430;-86
2023/08/15 06:26:12;;;;;;;6.17;3.97;;;21.90;99.90;;;;;;5114269;28;20486;-86
2023/08/15 06:28:39;;;;;;;5.20;3.90;;;21.90;99.90;;;;;;5114497;28;20438;-87
2023/08/15 06:31:07;;;;;;;4.40;4.00;;;21.90;99.90;;;;;;5114513;28;20439;-86
2023/08/15 06:33:34;;;;;;;7.70;4.37;;;21.90;99.90;;;;;;5114088;28;20961;-87
2023/08/15 06:36:00;;;;;;;10.27;3.73;;;22.00;99.90;;;;;;5114243;28;20458;-86
2023/08/15 06:38:27;;;;;;;5.33;4.13;;;22.30;99.90;;;;;;5113529;28;20435;-87
2023/08/15 06:40:54;;;;;;;5.13;3.80;;;22.50;99.90;;;;;;5114386;28;20444;-86
2023/08/15 06:43:21;;;;;;;5.47;3.20;;;22.60;99.90;;;;;;5114311;28;20566;-85
2023/08/15 06:45:47;;;;;;;4.20;3.40;;;22.80;99.90;;;;;;5114136;28;20462;-87
2023/08/15 06:48:15;;;;;;;4.00;3.40;;;22.80;99.90;;;;;;5113905;28;20696;-86
2023/08/15 06:50:42;;;;;;;4.30;3.23;;;22.90;99.90;;;;;;5114106;28;20450;-86
2023/08/15 06:53:09;;;;;;;4.47;3.40;;;23.00;99.90;;;;;;5114171;28;20208;-86
2023/08/15 06:55:36;;;;;;;3.10;2.80;;;23.10;99.90;;;;;;5114152;28;20227;-87
2023/08/15 06:58:03;;;;;;;4.60;3.33;;;23.30;99.90;;;;;;5114193;28;20220;-86
2023/08/15 07:00:30;;;;;;;3.97;3.63;;;23.40;99.90;;;;;;5114259;28;20801;-86
2023/08/15 07:02:57;;;;;;;5.90;3.90;;;23.60;99.90;;;;;;5114361;28;20233;-87
2023/08/15 07:05:25;;;;;;;4.07;3.67;;;23.90;99.90;;;;;;5114314;28;20224;-87
2023/08/15 07:07:53;;;;;;;5.75;4.05;;;24.10;99.90;;;;;;5114068;28;20216;-87
2023/08/15 07:10:20;;;;;;;3.83;3.20;;;24.40;99.90;;;;;;5114025;28;20201;-87
2023/08/15 07:12:47;;;;;;;3.38;2.80;;;24.60;99.90;;;;;;5114029;28;20283;-88
2023/08/15 07:15:14;;;;;;;6.68;3.83;;;24.80;99.90;;;;;;5113781;28;20731;-87
2023/08/15 07:17:41;;;;;;;4.35;3.92;;;25.10;99.90;;;;;;5114311;28;20235;-88
2023/08/15 07:20:09;;;;;;;5.65;3.88;;;25.20;99.90;;;;;;5114154;28;20200;-88
2023/08/15 07:22:37;;;;;;;3.35;3.08;;;25.40;99.90;;;;;;5113975;28;20700;-88
2023/08/15 07:25:05;;;;;;;4.10;3.00;;;25.50;99.90;;;;;;5114182;28;20220;-88
2023/08/15 07:27:33;;;;;;;4.22;3.80;;;25.60;99.90;;;;;;5113830;28;20252;-88
2023/08/15 07:29:59;;;;;;;5.22;3.25;;;25.50;99.90;;;;;;5114060;28;20188;-88
2023/08/15 07:32:28;;;;;;;4.22;3.92;;;25.50;99.90;;;;;;5113917;28;20554;-88
2023/08/15 07:34:55;;;;;;;4.20;2.78;;;25.60;99.90;;;;;;5113826;28;20217;-87
2023/08/15 07:37:22;;;;;;;4.85;3.63;;;25.50;99.90;;;;;;5114257;28;20204;-87
2023/08/15 07:39:59;;;;;;;4.28;3.45;;;25.50;99.90;;;;;;5114429;28;20204;-91
2023/08/15 07:42:26;;;;;;;5.78;4.10;;;25.50;99.90;;;;;;5114767;28;20196;-93
2023/08/15 07:44:53;;;;;;;3.67;3.38;;;25.40;99.90;;;;;;5114417;28;20778;-93
2023/08/15 07:47:20;;;;;;;3.75;3.50;;;25.30;99.90;;;;;;5115174;28;20219;-92
2023/08/15 07:49:47;;;;;;;5.57;3.80;;;25.10;99.90;;;;;;5117543;28;20200;-93
2023/08/15 07:52:14;;;;;;;4.47;4.07;;;24.90;99.90;;;;;;5117985;28;20673;-92
2023/08/15 07:54:43;;;;;;;6.28;4.40;;;24.70;99.90;;;;;;5118380;28;20253;-92
2023/08/15 07:57:11;;;;;;;4.38;3.95;;;24.90;99.90;;;;;;5118191;28;20677;-91
2023/08/15 07:59:38;;;;;;;6.75;4.57;;;25.00;99.90;;;;;;5118293;28;20816;-91
2023/08/15 08:02:06;;;;;;;4.07;3.65;;;25.00;99.90;;;;;;5118134;28;20200;-91
2023/08/15 08:04:32;;;;;;;5.88;4.32;;;25.10;99.90;;;;;;5117950;28;20577;-91
2023/08/15 08:06:59;;;;;;;4.40;3.75;;;25.10;99.90;;;;;;5117764;28;20569;-91
2023/08/15 08:09:26;;;;;;;7.50;4.10;;;25.00;99.90;;;;;;5117769;28;20764;-90
2023/08/15 08:11:53;;;;;;;2.95;2.75;;;25.10;99.90;;;;;;5117963;28;20281;-90
2023/08/15 08:14:21;;;;;;;6.60;3.90;;;25.00;99.90;;;;;;5117768;28;20589;-90
2023/08/15 08:16:48;;;;;;;5.93;4.35;;;25.10;99.90;;;;;;5117682;27;20569;-90
2023/08/15 08:19:14;;;;;;;5.90;4.45;;;25.20;99.90;;;;;;5118405;28;20193;-89
2023/08/15 08:21:42;;;;;;;6.38;3.03;;;25.30;99.90;;;;;;5118469;28;20208;-89
2023/08/15 08:24:08;;;;;;;4.10;3.53;;;25.40;99.90;;;;;;5118101;28;20224;-84
2023/08/15 08:26:35;;;;;;;3.72;3.28;;;25.60;99.90;;;;;;5116464;28;20228;-82
2023/08/15 08:29:02;;;;;;;3.67;3.28;;;25.90;99.90;;;;;;5116923;28;20720;-87
2023/08/15 08:31:30;;;;;;;4.65;3.13;;;25.90;99.90;;;;;;5117029;28;20201;-87
2023/08/15 08:33:57;;;;;;;3.08;2.63;;;25.90;99.90;;;;;;5116658;28;20200;-90
2023/08/15 08:36:24;;;;;;;4.38;2.65;;;25.80;99.90;;;;;;5117198;28;20201;-86
2023/08/15 08:38:50;;;;;;;3.03;2.58;;;25.60;99.90;;;;;;5116543;28;20197;-86
2023/08/15 08:41:17;;;;;;;3.13;2.00;;;25.50;99.90;;;;;;5116194;28;20669;-87
2023/08/15 08:43:44;;;;;;;2.72;2.53;;;25.40;99.90;;;;;;5116345;28;20577;-87
2023/08/15 08:46:13;;;;;;;2.30;1.90;;;25.40;99.90;;;;;;5116387;28;20312;-85
2023/08/15 08:48:43;;;;;;;2.90;1.77;;;25.40;99.90;;;;;;5116696;28;20217;-87
2023/08/15 08:51:11;;;;;;;2.20;1.98;;;25.40;99.90;;;;;;5117019;28;20590;-86
2023/08/15 08:53:38;;;;;;;10.55;2.30;;;25.60;99.90;;;;;;5116293;28;20201;-85
2023/08/15 08:56:06;;;;;;;2.55;2.35;;;26.00;99.90;;;;;;5115949;28;20221;-86
2023/08/15 08:58:34;;;;;;;1.92;1.83;;;26.40;99.90;;;;;;5115558;28;20212;-86
2023/08/15 09:01:03;;;;;;;2.83;2.58;;;26.80;99.90;;;;;;5114829;28;20196;-85
2023/08/15 09:03:30;;;;;;;2.35;2.15;;;27.10;99.90;;;;;;5115387;28;20236;-87
2023/08/15 09:05:59;;;;;;;13.15;1.67;;;27.30;99.90;;;;;;5115319;28;20212;-86
2023/08/15 09:08:26;;;;;;;1.83;1.73;;;27.50;99.90;;;;;;5115563;28;20227;-87
2023/08/15 09:10:52;;;;;;;4.43;2.13;;;27.80;99.90;;;;;;5115650;28;20205;-87
2023/08/15 09:13:22;;;;;;;1.45;1.35;;;28.00;99.90;;;;;;5115611;28;20200;-86
2023/08/15 09:15:50;;;;;;;1.27;1.17;;;28.30;99.90;;;;;;5116268;28;20627;-86
2023/08/15 09:18:21;;;;;;;2.97;1.63;;;28.50;99.90;;;;;;5115432;28;20203;-82
2023/08/15 09:20:48;;;;;;;1.45;1.35;;;28.60;99.90;;;;;;5116017;28;20195;-87
2023/08/15 09:23:17;;;;;;;1.40;1.30;;;28.50;99.90;;;;;;5115865;28;20259;-86
2023/08/15 09:25:43;;;;;;;2.25;1.58;;;28.40;99.90;;;;;;5114834;28;20221;-88
2023/08/15 09:28:10;;;;;;;1.08;1.08;;;28.20;99.90;;;;;;5114590;28;20221;-88
2023/08/15 09:30:37;;;;;;;1.35;1.25;;;28.00;99.90;;;;;;5115392;28;20192;-88
2023/08/15 09:33:05;;;;;;;1.73;1.52;;;28.00;99.90;;;;;;5115034;28;20669;-87
2023/08/15 09:35:32;;;;;;;2.03;1.10;;;28.10;99.90;;;;;;5115404;28;20216;-88
2023/08/15 09:38:05;;;;;;;3.40;1.52;;;28.30;99.90;;;;;;5115530;28;20246;-89
2023/08/15 09:40:33;;;;;;;1.40;1.30;;;28.40;99.90;;;;;;5115312;28;20247;-87
2023/08/15 09:43:00;;;;;;;1.42;1.33;;;28.40;99.90;;;;;;5115021;27;20639;-88
2023/08/15 09:45:27;;;;;;;1.60;1.50;;;28.30;99.90;;;;;;5115115;28;20217;-88
2023/08/15 09:47:54;;;;;;;1.42;1.27;;;28.30;99.90;;;;;;5115227;28;20216;-88
2023/08/15 09:50:21;;;;;;;2.30;1.23;;;28.20;99.90;;;;;;5115574;28;20566;-89
2023/08/15 09:52:48;;;;;;;1.63;1.52;;;28.10;99.90;;;;;;5115425;28;20197;-89
2023/08/15 09:55:16;;;;;;;1.67;1.58;;;28.00;99.90;;;;;;5115197;28;20562;-89
2023/08/15 09:57:47;;;;;;;1.90;1.17;;;27.90;99.90;;;;;;5115729;28;20236;-88
2023/08/15 10:00:16;;;;;;;1.33;1.17;;;27.80;99.90;;;;;;5114733;28;20187;-89
2023/08/15 10:02:47;;;;;;;1.65;1.55;;;27.50;99.90;;;;;;5114731;28;20297;-89
2023/08/15 10:05:17;;;;;;;1.65;1.55;;;27.40;99.90;;;;;;5114963;28;20220;-88
2023/08/15 10:07:46;;;;;;;1.42;1.33;;;27.30;99.90;;;;;;5115291;28;20216;-89
2023/08/15 10:10:15;;;;;;;1.35;1.25;;;27.20;99.90;;;;;;5115279;28;20550;-88
2023/08/15 10:12:45;;;;;;;1.13;0.93;;;27.10;99.90;;;;;;5115002;28;20201;-90
2023/08/15 10:15:12;;;;;;;1.58;1.27;;;27.10;99.90;;;;;;5121922;28;20244;-89
2023/08/15 10:17:39;;;;;;;2.00;1.35;;;27.00;99.90;;;;;;5115068;28;20200;-89
2023/08/15 10:20:10;;;;;;;2.28;1.65;;;27.10;99.90;;;;;;5114798;27;20250;-88
2023/08/15 10:22:38;;;;;;;1.30;1.20;;;27.20;99.90;;;;;;5114552;28;20185;-88
2023/08/15 10:25:33;;;;;;;1.55;1.17;;;27.10;99.90;;;;;;5115031;28;20588;-89
2023/08/15 10:28:06;;;;;;;1.27;1.17;;;27.20;99.90;;;;;;5114375;28;20747;-89
2023/08/15 10:30:36;;;;;;;1.13;1.02;;;27.30;99.90;;;;;;5114633;28;20238;-89
2023/08/15 10:33:13;;;;;;;2.17;1.10;;;27.30;99.90;;;;;;5114592;28;20247;-88
2023/08/15 10:35:47;;;;;;;3.50;1.00;;;27.30;99.90;;;;;;5114220;28;20224;-90
2023/08/15 10:38:15;;;;;;;2.30;1.20;;;27.50;99.90;;;;;;5114420;28;20180;-90
2023/08/15 10:40:43;;;;;;;1.13;1.02;;;27.70;99.90;;;;;;5114281;28;20677;-88
2023/08/15 10:43:12;;;;;;;1.10;1.08;;;27.70;99.90;;;;;;5114638;28;20236;-88
2023/08/15 10:45:45;;;;;;;1.13;1.02;;;27.80;99.90;;;;;;5114367;28;20591;-89
2023/08/15 10:48:12;;;;;;;2.10;1.88;;;27.90;99.90;;;;;;5114608;28;20216;-88
2023/08/15 10:50:45;;;;;;;1.20;1.10;;;27.80;99.90;;;;;;5114299;28;20673;-88
2023/08/15 10:53:12;;;;;;;0.80;0.80;;;27.90;99.90;;;;;;5114535;28;20596;-88
2023/08/15 10:55:39;;;;;;;1.27;1.17;;;27.90;99.90;;;;;;5114236;28;20252;-89
2023/08/15 10:58:08;;;;;;;1.10;1.00;;;27.90;99.90;;;;;;5114559;28;20208;-88
2023/08/15 11:00:37;;;;;;;2.17;1.27;;;27.80;99.90;;;;;;5114336;28;20197;-88
2023/08/15 11:03:05;;;;;;;2.67;1.30;;;27.70;99.90;;;;;;5114225;28;20315;-89
2023/08/15 11:05:32;;;;;;;1.30;1.20;;;27.70;99.90;;;;;;5114335;28;20221;-87
2023/08/15 11:08:12;;;;;;;1.67;1.35;;;28.00;99.90;;;;;;5113548;28;20212;-87
2023/08/15 11:10:48;;;;;;;1.40;1.30;;;28.50;99.90;;;;;;5113702;28;20201;-88
2023/08/15 11:13:15;;;;;;;1.67;1.05;;;28.90;99.90;;;;;;5113786;28;20215;-87
2023/08/15 11:15:44;;;;;;;1.65;1.13;;;29.00;99.90;;;;;;5113641;28;20630;-87
2023/08/15 11:18:11;;;;;;;1.23;0.80;;;29.10;99.90;;;;;;5113950;28;20199;-88
2023/08/15 11:20:38;;;;;;;1.15;0.82;;;29.00;99.90;;;;;;5113856;28;20206;-87
2023/08/15 11:23:05;;;;;;;0.88;0.88;;;28.90;99.90;;;;;;5113990;28;20289;-87
2023/08/15 11:25:33;;;;;;;0.75;0.75;;;28.90;99.90;;;;;;5118003;28;20221;-88
2023/08/15 11:28:00;;;;;;;0.80;0.80;;;28.80;99.90;;;;;;5117688;28;20203;-87
2023/08/15 11:30:28;;;;;;;1.50;1.17;;;28.80;99.90;;;;;;5117739;28;20209;-87
2023/08/15 11:32:56;;;;;;;1.27;0.85;;;28.90;99.90;;;;;;5117701;28;20616;-88
2023/08/15 11:35:23;;;;;;;0.98;0.98;;;28.80;99.90;;;;;;5117561;28;20221;-87
2023/08/15 11:37:50;;;;;;;1.63;1.00;;;28.80;99.90;;;;;;5117201;28;20206;-86
2023/08/15 11:40:17;;;;;;;1.95;1.10;;;28.70;99.90;;;;;;5117156;28;20602;-87
2023/08/15 11:42:44;;;;;;;1.20;0.93;;;28.70;99.90;;;;;;5117516;28;20206;-88
2023/08/15 11:45:12;;;;;;;1.50;0.90;;;28.50;99.90;;;;;;5117797;28;20706;-87
2023/08/15 11:47:57;;;;;;;1.63;0.98;;;28.50;99.90;;;;;;5117876;28;20201;-86
2023/08/15 11:50:28;;;;;;;1.15;0.90;;;28.60;99.90;;;;;;5117387;28;20183;-87
2023/08/15 11:52:55;;;;;;;1.40;1.30;;;28.70;99.90;;;;;;5116957;28;20214;-87
2023/08/15 11:55:22;;;;;;;1.02;0.93;;;28.70;99.90;;;;;;5117203;28;20222;-87
2023/08/15 11:57:50;;;;;;;0.98;0.98;;;28.60;99.90;;;;;;5117181;28;20228;-86
2023/08/15 12:00:18;;;;;;;2.45;1.30;;;28.60;99.90;;;;;;5117069;28;20658;-87
2023/08/15 12:02:48;;;;;;;1.92;0.90;;;28.70;99.90;;;;;;5116479;28;20234;-86
2023/08/15 12:05:18;;;;;;;0.98;0.80;;;28.80;99.90;;;;;;5116891;28;20231;-86
2023/08/15 12:07:46;;;;;;;1.00;1.00;;;28.90;99.90;;;;;;5117678;28;20201;-86
2023/08/15 12:10:14;;;;;;;1.00;1.00;;;28.90;99.90;;;;;;5116473;27;20229;-87
2023/08/15 12:12:43;;;;;;;1.40;0.90;;;29.10;99.90;;;;;;5117332;28;20198;-87
2023/08/15 12:15:11;;;;;;;1.95;0.82;;;28.80;99.90;;;;;;5116848;28;20222;-87
2023/08/15 12:17:39;;;;;;;1.10;1.00;;;28.70;99.90;;;;;;5116507;28;20206;-87
2023/08/15 12:20:08;;;;;;;1.27;1.17;;;28.60;99.90;;;;;;5116801;28;20197;-87
2023/08/15 12:22:37;;;;;;;1.88;1.20;;;28.70;99.90;;;;;;5116441;28;20208;-87
2023/08/15 12:25:04;;;;;;;2.33;1.23;;;28.80;99.90;;;;;;5116609;28;20224;-87
2023/08/15 12:27:31;;;;;;;1.52;1.13;;;28.70;99.90;;;;;;5116713;28;20206;-87
2023/08/15 12:29:58;;;;;;;2.03;1.67;;;28.60;99.90;;;;;;5116460;28;20231;-87
2023/08/15 12:32:25;;;;;;;1.63;1.52;;;28.60;99.90;;;;;;5116404;28;20205;-87
2023/08/15 12:34:52;;;;;;;1.30;1.20;;;28.40;99.90;;;;;;5116321;28;20217;-87
2023/08/15 12:37:19;;;;;;;1.13;1.08;;;28.30;99.90;;;;;;5115993;28;20197;-87
2023/08/15 12:39:47;;;;;;;1.92;1.13;;;28.30;99.90;;;;;;5116085;28;20200;-87
2023/08/15 12:42:14;;;;;;;1.30;1.20;;;28.30;99.90;;;;;;5116305;28;20376;-87
2023/08/15 12:44:41;;;;;;;1.27;1.17;;;28.10;99.90;;;;;;5115881;28;20222;-87
2023/08/15 12:47:09;;;;;;;1.80;1.65;;;28.10;99.90;;;;;;5116344;27;20291;-88